HSKO2: Arkansas River, Haskell, OK

Data processed at Thu Jan 04 2018 23:12


All information presented herein is the property of the government of the United States of America and may be revised or deleted at any time without prior notice.
Dissemination of this information without the expressed written consent of the Public Affairs Office, Tulsa District U.S. Army Corps of Engineers is strictly prohibited.
These data are gathered electronically and, as presented, have not undergone any form of quality control. These data are not guaranteed to be valid or correct.
Go to home page.
Go to station list.

Upstream stations:

Downstream station:
Previous Day
Next Day
Current Day
    
SHEF ID:       HSKO2     Arkansas River near Haskell, OK
STATION TYPE:  

               PRECIP     STAGE  STAGE(2)  RIV-FLOW  BAT-LOAD
                   in        ft        ft       cfs      volt
              Ccp-Rev   Ccp-Rev   Ccp-Rev   Ccp-Rev   Ccp-Rev
(US/Central)
01/02 00:00      0.00      2.28      2.27       479     12.41
01/02 01:00      0.00      2.28      2.27       479     12.41
01/02 02:00      0.00      2.05      2.26       346     12.33
01/02 03:00      0.00      2.28      2.26       479     12.33
01/02 04:00      0.00      2.18      2.26       417     12.25
01/02 05:00      0.00      2.28      2.27       479     12.17
01/02 06:00      0.00      2.34      2.29       519     12.17
01/02 07:00      0.00      2.42      2.29       576     12.09
01/02 08:00      0.00      2.37      2.29       540     12.09
01/02 09:00      0.00      2.51      2.30       646     12.17
01/02 10:00      0.00      2.70      2.46       831     12.65
01/02 11:00      0.00      3.88      3.74      2741     13.29
01/02 12:00      0.00      4.28      4.13      3446     13.29
01/02 13:00      0.00      4.90      4.75      4607     13.44
01/02 14:00      0.00      5.03      4.89      4886     13.37
01/02 15:00      0.00      4.99      4.87      4788     13.37
01/02 16:00      0.00      4.94      4.78      4687     13.29
01/02 17:00      0.00      4.91      4.78      4627     13.29
01/02 18:00      0.00      4.91      4.72      4627     12.89
01/02 19:00      0.00      4.97      4.77      4747     12.65
01/02 20:00      0.00      5.12      5.00      5124     12.57
01/02 21:00      0.00      5.27      5.15      5533     12.57
01/02 22:00      0.00      5.36      5.20      5786     12.49
01/02 23:00      0.00      5.41      5.27      5936     12.49